Latest Weather Observations for Horsham

IDV60801

Issued at 12:02 pm EST Wednesday 8 July 2015 (issued every 30 minutes, with the page automatically refreshed every 10 minutes)

About weather observations | Map of weather stations | Latest weather observations for VIC | Other Formats
Station Details ID: 079100 Name: HORSHAM AERODROME Lat: -36.67 Lon: 142.17 Height: 133.8 m
Data from the previous 72 hours. | See also: Recent months at Horsham
Date/Time
EST
Temp
°C
App
Temp
°C
Dew
Point
Rel
Hum
%
Delta-T
°C
Wind Press
QNH
hPa
Press
MSL
hPa
Rain
since 9 am
mm
Dir
 
Spd
km/h
Gust
km/h
Spd
kts
Gust
kts
08/12:00pm 10.8 6.6 7.5 80 1.6 NNE 19 24 10 13 1026.1 1026.4 0.0
08/11:31am 11.4 7.9 8.8 84 1.3 NNE 17 22 9 12 1026.3 1026.6 0.0
08/11:30am 11.0 7.4 8.2 83 1.4 NNE 17 22 9 12 1026.3 1026.6 0.0
08/11:00am 10.2 7.0 8.6 90 0.8 NE 15 22 8 12 1026.5 1026.8 0.0
08/10:41am 9.4 5.8 8.3 93 0.5 NE 17 20 9 11 1026.6 1026.9 0.0
08/10:30am 8.7 5.4 7.9 95 0.4 NE 15 19 8 10 1026.6 1026.9 0.0
08/10:24am 8.5 5.1 7.7 95 0.4 NE 15 19 8 10 1026.6 1026.9 0.0
08/10:15am 8.2 4.8 7.6 96 0.3 ENE 15 20 8 11 1026.6 1026.9 0.0
08/10:00am 7.4 3.9 7.0 97 0.2 ENE 15 19 8 10 1026.5 1026.8 0.0
08/09:57am 7.5 4.4 7.1 97 0.2 ENE 13 17 7 9 1026.5 1026.8 0.0
08/09:46am 7.1 3.9 6.7 97 0.2 E 13 17 7 9 1026.4 1026.7 0.0
08/09:30am 6.5 4.9 6.2 98 0.1 ENE 4 9 2 5 1026.4 1026.7 0.0
08/09:27am 6.2 4.9 5.9 98 0.1 NE 2 7 1 4 1026.4 1026.7 0.0
08/09:07am 5.9 2.1 5.6 98 0.1 E 15 20 8 11 1026.1 1026.4 0.0
08/09:00am 5.4 0.7 5.1 98 0.1 E 19 22 10 12 1026.1 1026.4 0.0
08/08:30am 4.8 0.4 4.7 99 0.0 E 17 20 9 11 1025.8 1026.1 0.0
08/08:00am 4.0 0.2 3.9 99 0.0 E 13 15 7 8 1025.8 1026.1 0.0
08/07:34am 3.9 0.1 3.8 99 0.0 ENE 13 15 7 8 1025.6 1025.9 0.0
08/07:30am 3.8 0.0 3.7 99 0.0 ENE 13 15 7 8 1025.6 1025.9 0.0
08/07:12am 3.9 0.1 3.8 99 0.0 ENE 13 15 7 8 1025.5 1025.8 0.0
08/07:00am 4.0 0.2 3.9 99 0.0 ENE 13 17 7 9 1025.3 1025.6 0.0
08/06:30am 4.2 -0.3 4.1 99 0.0 E 17 20 9 11 1024.9 1025.2 0.0
08/06:00am 4.2 0.4 4.1 99 0.0 ENE 13 17 7 9 1024.7 1025.0 0.0
08/05:30am 4.2 1.2 4.1 99 0.0 ENE 9 11 5 6 1024.7 1025.0 0.0
08/05:00am 4.3 1.3 4.2 99 0.0 E 9 13 5 7 1024.4 1024.7 0.0
08/04:30am 4.3 0.5 4.0 98 0.1 E 13 15 7 8 1024.5 1024.8 0.0
08/04:00am 4.0 0.9 3.7 98 0.1 ENE 9 11 5 6 1024.5 1024.8 0.0
08/03:30am 3.7 -0.2 3.4 98 0.1 ENE 13 15 7 8 1024.6 1024.9 0.0
08/03:27am 3.7 -0.2 3.4 98 0.1 ENE 13 15 7 8 1024.6 1024.9 0.0
08/03:00am 3.8 -0.1 3.5 98 0.1 ENE 13 15 7 8 1024.5 1024.8 0.0
08/02:50am 4.1 0.7 3.8 98 0.1 ENE 11 11 6 6 1024.5 1024.8 0.0
08/02:30am 4.1 1.6 3.8 98 0.1 ENE 6 7 3 4 1024.7 1025.0 0.0
08/02:00am 4.0 1.5 3.7 98 0.1 ENE 6 7 3 4 1024.6 1024.9 0.0
08/01:30am 3.9 1.2 3.6 98 0.1 ENE 7 11 4 6 1024.5 1024.8 0.0
08/01:00am 3.3 0.5 3.0 98 0.1 ENE 7 9 4 5 1024.5 1024.8 0.0
08/12:47am 3.1 0.2 2.8 98 0.1 NE 7 9 4 5 1024.5 1024.8 0.0
08/12:39am 2.8 0.1 2.5 98 0.1 N 6 7 3 4 1024.6 1024.9 0.0
08/12:30am 2.6 -0.2 2.3 98 0.1 N 6 7 3 4 1024.6 1024.9 0.0
08/12:00am 2.0 -0.9 1.7 98 0.1 NNW 6 7 3 4 1024.7 1025.0 0.0
 
Date/Time
EST
Temp
°C
App
Temp
°C
Dew
Point
Rel
Hum
%
Delta-T
°C
Wind Press
QNH
hPa
Press
MSL
hPa
Rain
since 9 am
mm
Dir
 
Spd
km/h
Gust
km/h
Spd
kts
Gust
kts
07/11:30pm 2.7 -1.0 2.4 98 0.1 ESE 11 13 6 7 1024.6 1024.9 0.0
07/11:27pm 2.7 -1.4 2.4 98 0.1 ESE 13 15 7 8 1024.6 1024.9 0.0
07/11:00pm 2.7 -1.4 2.3 97 0.2 ESE 13 15 7 8 1024.5 1024.8 0.0
07/10:30pm 4.3 1.3 3.9 97 0.2 E 9 11 5 6 1024.4 1024.7 0.0
07/10:00pm 5.0 2.5 4.6 97 0.2 ESE 7 11 4 6 1024.5 1024.8 0.0
07/09:30pm 6.4 5.5 6.0 97 0.2 CALM 0 0 0 0 1024.3 1024.6 0.0
07/09:00pm 6.9 5.3 6.5 97 0.2 NNE 4 6 2 3 1024.3 1024.6 0.0
07/08:38pm 6.9 4.8 6.5 97 0.2 NNE 7 7 4 4 1024.2 1024.5 0.0
07/08:30pm 6.9 4.8 6.5 97 0.2 NNE 7 7 4 4 1024.1 1024.4 0.0
07/08:00pm 6.5 3.9 5.9 96 0.3 NNE 9 11 5 6 1023.9 1024.2 0.0
07/07:30pm 5.1 2.7 4.4 95 0.3 ENE 6 9 3 5 1023.9 1024.2 0.0
07/07:24pm 5.0 2.4 4.3 95 0.3 ENE 7 11 4 6 1023.9 1024.2 0.0
07/07:00pm 3.8 0.2 2.8 93 0.4 N 11 17 6 9 1023.6 1023.9 0.0
07/06:30pm 5.1 0.9 3.9 92 0.5 NNW 15 17 8 9 1023.2 1023.5 0.0
07/06:00pm 6.5 2.1 4.8 89 0.7 NNW 17 19 9 10 1022.9 1023.2 0.0
07/05:30pm 8.2 4.8 5.8 85 1.1 N 13 15 7 8 1022.7 1022.9 0.0
07/05:00pm 10.1 6.2 7.0 81 1.5 N 17 19 9 10 1022.5 1022.7 0.0
07/04:30pm 11.3 7.8 7.4 77 1.9 N 15 19 8 10 1022.3 1022.5 0.0
07/04:00pm 11.7 8.2 7.4 75 2.1 NE 15 19 8 10 1022.2 1022.4 0.0
07/03:30pm 11.7 7.4 7.2 74 2.2 NE 19 22 10 12 1022.0 1022.2 0.0
07/03:00pm 11.4 7.1 7.1 75 2.1 ENE 19 24 10 13 1021.9 1022.1 0.0
07/02:30pm 11.8 8.4 7.7 76 2.0 NE 15 20 8 11 1021.9 1022.1 0.0
07/02:00pm 10.6 6.6 6.7 77 1.8 NE 17 20 9 11 1022.1 1022.3 0.0
07/01:30pm 10.9 6.9 6.8 76 2.0 NE 17 22 9 12 1022.1 1022.3 0.0
07/01:00pm 11.3 7.0 7.0 75 2.1 NE 19 24 10 13 1022.3 1022.5 0.0
07/12:30pm 11.2 6.8 6.7 74 2.1 NE 19 22 10 12 1022.5 1022.7 0.0
07/12:00pm 11.4 6.5 6.9 74 2.1 ENE 22 28 12 15 1022.5 1022.7 0.0
07/11:30am 11.4 6.9 6.9 74 2.2 ENE 20 28 11 15 1022.6 1022.8 0.0
07/11:00am 11.0 6.1 6.9 76 2.0 E 22 28 12 15 1022.8 1023.1 0.0
07/10:30am 9.8 5.2 6.5 80 1.5 E 20 26 11 14 1022.7 1022.9 0.0
07/10:00am 9.2 4.8 6.6 84 1.2 E 19 22 10 12 1022.6 1022.8 0.0
07/09:30am 8.3 4.4 7.1 92 0.6 E 17 20 9 11 1022.5 1022.7 0.0
07/09:00am 6.6 2.4 5.9 95 0.3 E 17 20 9 11 1022.4 1022.6 0.2
07/08:30am 6.3 2.5 5.7 96 0.3 E 15 20 8 11 1022.0 1022.2 0.2
07/08:00am 6.0 2.5 5.4 96 0.3 E 13 17 7 9 1021.7 1021.9 0.2
07/07:30am 6.0 1.2 5.6 97 0.2 E 20 24 11 13 1021.2 1021.5 0.2
07/07:00am 5.8 1.5 5.4 97 0.2 E 17 22 9 12 1020.7 1021.0 0.2
07/06:30am 5.7 2.2 5.4 98 0.1 E 13 17 7 9 1020.3 1020.6 0.2
07/06:00am 5.5 1.9 5.2 98 0.1 E 13 17 7 9 1019.9 1020.2 0.2
07/05:30am 5.5 2.3 5.2 98 0.1 E 11 15 6 8 1019.7 1020.0 0.2
07/05:00am 5.0 1.7 4.7 98 0.1 E 11 15 6 8 1019.4 1019.7 0.2
07/04:30am 4.8 1.5 4.5 98 0.1 E 11 13 6 7 1019.1 1019.4 0.2
07/04:00am 4.5 1.5 4.2 98 0.1 E 9 11 5 6 1019.1 1019.4 0.2
07/03:30am 3.5 0.3 3.2 98 0.1 E 9 11 5 6 1019.3 1019.6 0.2
07/03:00am 1.2 -2.7 0.9 98 0.1 ESE 11 13 6 7 1019.2 1019.5 0.2
07/02:30am 1.5 -2.8 1.2 98 0.1 ESE 13 15 7 8 1018.9 1019.2 0.2
07/02:00am 2.8 -1.6 2.5 98 0.1 E 15 17 8 9 1018.7 1019.0 0.2
07/01:30am 3.3 -0.3 3.0 98 0.1 E 11 11 6 6 1018.6 1018.9 0.2
07/01:00am 1.9 -2.3 1.5 97 0.2 ESE 13 13 7 7 1018.5 1018.8 0.2
07/12:30am 2.8 -0.5 2.4 97 0.2 E 9 13 5 7 1018.5 1018.8 0.2
07/12:00am 3.5 0.3 3.1 97 0.2 E 9 13 5 7 1018.4 1018.7 0.2
 
Date/Time
EST
Temp
°C
App
Temp
°C
Dew
Point
Rel
Hum
%
Delta-T
°C
Wind Press
QNH
hPa
Press
MSL
hPa
Rain
since 9 am
mm
Dir
 
Spd
km/h
Gust
km/h
Spd
kts
Gust
kts
06/11:30pm 3.3 -0.7 2.9 97 0.2 E 13 15 7 8 1018.3 1018.6 0.2
06/11:00pm 3.8 -0.5 3.4 97 0.2 E 15 15 8 8 1018.2 1018.5 0.2
06/10:30pm 4.2 0.3 3.6 96 0.2 E 13 15 7 8 1018.2 1018.5 0.2
06/10:00pm 4.2 -0.1 3.5 95 0.3 ESE 15 17 8 9 1018.0 1018.3 0.2
06/09:30pm 5.2 2.2 4.3 94 0.4 E 9 9 5 5 1017.8 1018.1 0.2
06/09:00pm 5.8 2.5 4.8 93 0.4 E 11 13 6 7 1017.4 1017.7 0.2
06/08:30pm 6.5 3.3 5.1 91 0.6 E 11 13 6 7 1017.2 1017.5 0.2
06/08:00pm 6.9 3.7 5.2 89 0.8 E 11 13 6 7 1016.9 1017.2 0.2
06/07:30pm 8.1 6.8 6.2 88 0.9 S 2 9 1 5 1016.6 1016.9 0.2
06/07:00pm 8.7 6.7 6.2 84 1.2 SSE 6 7 3 4 1016.5 1016.7 0.2
06/06:30pm 10.2 7.6 7.8 85 1.2 W 11 15 6 8 1016.1 1016.3 0.2
06/06:00pm 9.9 6.8 7.2 83 1.3 WNW 13 15 7 8 1015.6 1015.8 0.2
06/05:30pm 11.4 8.0 7.7 78 1.8 WNW 15 17 8 9 1015.1 1015.3 0.2
06/05:00pm 12.1 7.7 7.4 73 2.3 W 20 28 11 15 1014.8 1015.0 0.2
06/04:30pm 13.1 7.0 6.5 64 3.2 W 28 41 15 22 1014.5 1014.7 0.2
06/04:00pm 15.3 11.3 6.8 57 4.2 WNW 17 20 9 11 1014.1 1014.3 0.2
06/03:30pm 16.1 13.2 8.3 60 4.0 WNW 13 26 7 14 1013.9 1014.1 0.2
06/03:00pm 15.5 11.5 8.3 62 3.7 NW 19 24 10 13 1013.8 1014.0 0.2
06/02:30pm 15.0 13.3 8.5 65 3.3 WNW 7 13 4 7 1013.8 1014.0 0.2
06/02:00pm 13.8 12.0 8.0 68 2.9 W 7 11 4 6 1014.1 1014.3 0.2
06/01:30pm 13.6 11.8 8.0 69 2.8 NNW 7 13 4 7 1014.4 1014.6 0.2
06/01:00pm 12.7 10.9 8.0 73 2.3 NNW 7 13 4 7 1014.7 1014.9 0.2
06/12:30pm 12.3 9.5 8.4 77 1.9 N 13 19 7 10 1015.3 1015.5 0.2
06/12:00pm 11.2 8.7 8.2 82 1.5 N 11 19 6 10 1015.5 1015.7 0.2
06/11:30am 10.3 7.4 8.1 86 1.1 NNW 13 17 7 9 1015.8 1016.0 0.2
06/11:00am 9.8 6.5 7.9 88 0.9 NNW 15 17 8 9 1016.1 1016.3 0.2
06/10:30am 9.3 5.9 7.6 89 0.8 N 15 20 8 11 1015.9 1016.1 0.2
06/10:00am 8.5 4.6 7.0 90 0.7 N 17 20 9 11 1015.5 1015.7 0.2
06/09:30am 7.9 3.5 6.5 91 0.6 NNE 19 22 10 12 1015.2 1015.4 0.2
06/09:00am 7.3 3.1 5.9 91 0.6 NNE 17 20 9 11 1014.9 1015.1 0.4
06/08:30am 7.2 3.0 5.5 89 0.8 N 17 22 9 12 1015.1 1015.3 0.2
06/08:00am 7.2 2.8 5.0 86 1.0 NNE 17 20 9 11 1015.1 1015.3 0.0
06/07:30am 7.0 3.4 5.0 87 0.9 N 13 17 7 9 1015.3 1015.5 0.0
06/07:00am 7.0 3.3 4.7 85 1.0 NNE 13 17 7 9 1015.3 1015.5 0.0
06/06:30am 6.9 3.2 4.4 84 1.1 N 13 15 7 8 1015.2 1015.4 0.0
06/06:00am 7.3 3.2 4.4 82 1.3 N 15 19 8 10 1015.2 1015.4 0.0
06/05:30am 7.4 2.6 4.4 81 1.3 N 19 20 10 11 1015.1 1015.3 0.0
06/05:00am 7.4 2.6 4.4 81 1.3 N 19 22 10 12 1015.2 1015.4 0.0
06/04:30am 7.3 2.2 4.3 81 1.3 N 20 24 11 13 1015.2 1015.4 0.0
06/04:00am 7.3 2.2 4.3 81 1.3 N 20 22 11 12 1015.5 1015.7 0.0
06/03:30am 7.4 2.4 4.4 81 1.3 N 20 24 11 13 1015.7 1015.9 0.0
06/03:00am 7.5 2.4 4.1 79 1.5 N 20 24 11 13 1016.1 1016.3 0.0
06/02:30am 7.6 2.5 4.0 78 1.6 NNE 20 24 11 13 1016.2 1016.4 0.0
06/02:00am 7.5 2.4 4.1 79 1.5 NNE 20 24 11 13 1016.3 1016.5 0.0
06/01:30am 7.5 2.6 4.1 79 1.5 NNE 19 22 10 12 1016.5 1016.7 0.0
06/01:00am 7.6 2.5 4.0 78 1.6 NNE 20 24 11 13 1016.8 1017.1 0.0
06/12:30am 7.6 2.7 4.0 78 1.6 N 19 22 10 12 1017.1 1017.4 0.0
06/12:00am 7.7 2.8 3.9 77 1.6 N 19 22 10 12 1017.2 1017.5 0.0
 
Date/Time
EST
Temp
°C
App
Temp
°C
Dew
Point
Rel
Hum
%
Delta-T
°C
Wind Press
QNH
hPa
Press
MSL
hPa
Rain
since 9 am
mm
Dir
 
Spd
km/h
Gust
km/h
Spd
kts
Gust
kts
05/11:30pm 7.7 2.8 3.9 77 1.6 N 19 20 10 11 1017.3 1017.6 0.0
05/11:00pm 7.9 3.0 3.9 76 1.7 N 19 22 10 12 1017.3 1017.6 0.0
05/10:30pm 8.1 3.5 3.9 75 1.8 N 17 22 9 12 1017.3 1017.6 0.0
05/10:00pm 8.2 3.7 4.0 75 1.8 N 17 20 9 11 1017.3 1017.6 0.0
05/09:30pm 8.4 3.8 3.8 73 2.0 N 17 20 9 11 1017.4 1017.7 0.0
05/09:00pm 8.5 3.9 3.8 72 2.0 N 17 22 9 12 1017.4 1017.7 0.0
05/08:30pm 8.9 3.9 3.7 70 2.3 N 19 22 10 12 1017.4 1017.7 0.0
05/08:00pm 8.9 3.7 3.7 70 2.3 NNE 20 22 11 12 1017.4 1017.7 0.0
05/07:30pm 8.5 3.5 3.6 71 2.1 NNE 19 20 10 11 1017.4 1017.7 0.0
05/07:00pm 7.9 3.2 3.2 72 2.0 NNE 17 19 9 10 1017.4 1017.7 0.0
05/06:30pm 8.5 3.8 3.4 70 2.2 NNE 17 19 9 10 1017.4 1017.7 0.0
05/06:00pm 9.0 4.7 3.2 67 2.5 NNE 15 19 8 10 1017.3 1017.6 0.0
05/05:30pm 11.0 6.5 4.0 62 3.1 N 17 20 9 11 1017.1 1017.4 0.0
05/05:00pm 13.2 8.8 4.6 56 4.0 N 17 20 9 11 1017.1 1017.4 0.0
05/04:30pm 14.4 9.5 5.0 53 4.4 N 20 24 11 13 1017.2 1017.5 0.0
05/04:00pm 15.0 9.7 5.0 51 4.7 N 22 30 12 16 1017.3 1017.6 0.0
05/03:30pm 15.5 10.7 5.4 51 4.8 N 20 28 11 15 1017.4 1017.7 0.0
05/03:00pm 15.2 10.3 5.1 51 4.8 NNW 20 32 11 17 1017.6 1017.9 0.0
05/02:30pm 15.2 10.0 5.4 52 4.7 NNW 22 26 12 14 1017.7 1018.0 0.0
05/02:00pm 14.8 9.0 4.5 50 4.8 N 24 33 13 18 1018.0 1018.3 0.0
05/01:30pm 14.5 8.3 4.5 51 4.7 NNW 26 32 14 17 1018.3 1018.6 0.0
05/01:00pm 14.4 8.3 5.0 53 4.4 N 26 32 14 17 1018.7 1019.0 0.0
05/12:30pm 14.0 7.5 4.6 53 4.4 NNW 28 35 15 19 1019.3 1019.6 0.0

Other Formats:

Comma delimited format used in spreadsheet applications
http://www.bom.gov.au/fwo/IDV60801/IDV60801.95839.axf

JavaScript Object Notation format (JSON) in row-major order
http://www.bom.gov.au/fwo/IDV60801/IDV60801.95839.json